ADDS METAR Data INFO
IDs: Format: Raw Decoded Include TAF

Data at: 1302 UTC 19 Jul 2018

KJYM 191255Z AUTO 13006KT 10SM CLR 20/12 A3010 RMK AO2
KJYM 191235Z AUTO 13005KT 10SM CLR 19/12 A3009 RMK AO2
KJYM 191215Z AUTO 13004KT 10SM CLR 18/12 A3008 RMK AO2
KJYM 191155Z AUTO 12004KT 10SM CLR 17/12 A3008 RMK AO2
KJYM 191135Z AUTO 13005KT 10SM CLR 16/11 A3008 RMK AO2
KJYM 191115Z AUTO 14005KT 10SM CLR 16/11 A3008 RMK AO2
KJYM 191055Z AUTO 00000KT 10SM SCT055 13/11 A3008 RMK AO2
KJYM 191035Z AUTO 13004KT 10SM CLR 13/10 A3008 RMK AO2
KJYM 191015Z AUTO 00000KT 10SM CLR 12/10 A3008 RMK AO2
KJYM 190955Z AUTO 13004KT 10SM SCT050 12/10 A3007 RMK AO2
KJYM 190935Z AUTO 00000KT 10SM SCT050 12/10 A3007 RMK AO2
KJYM 190915Z AUTO 00000KT 10SM CLR 12/10 A3007 RMK AO2
KJYM 190855Z AUTO 00000KT 10SM CLR 13/11 A3007 RMK AO2
KJYM 190835Z AUTO 14003KT 10SM CLR 14/11 A3007 RMK AO2
KJYM 190815Z AUTO 13004KT 10SM SCT055 13/11 A3007 RMK AO2
KJYM 190755Z AUTO 14004KT 10SM CLR 13/11 A3007 RMK AO2
KJYM 190735Z AUTO 16003KT 10SM CLR 13/11 A3007 RMK AO2
KJYM 190715Z AUTO 16003KT 10SM CLR 14/11 A3007 RMK AO2
KJYM 190655Z AUTO 15003KT 10SM CLR 14/11 A3007 RMK AO2
KJYM 190635Z AUTO 15003KT 10SM CLR 15/12 A3007 RMK AO2
KJYM 190615Z AUTO 17003KT 10SM CLR 15/12 A3007 RMK AO2
KJYM 190555Z AUTO 15004KT 10SM CLR 16/12 A3007 RMK AO2
KJYM 190535Z AUTO 14004KT 10SM CLR 16/12 A3007 RMK AO2
KJYM 190515Z AUTO 13004KT 10SM CLR 14/11 A3007 RMK AO2
KJYM 190455Z AUTO 00000KT 10SM CLR 15/12 A3007 RMK AO2
KJYM 190435Z AUTO 11003KT 10SM CLR 15/12 A3007 RMK AO2
KJYM 190415Z AUTO 09004KT 10SM CLR 15/12 A3006 RMK AO2
KJYM 190355Z AUTO 09003KT 10SM CLR 15/12 A3007 RMK AO2
KJYM 190335Z AUTO 00000KT 10SM CLR 14/12 A3007 RMK AO2
KJYM 190315Z AUTO 00000KT 10SM CLR 15/12 A3007 RMK AO2
KJYM 190255Z AUTO 00000KT 10SM CLR 16/13 A3007 RMK AO2
KJYM 190235Z AUTO 00000KT 10SM CLR 16/13 A3007 RMK AO2
KJYM 190215Z AUTO 00000KT 10SM SCT060 SCT075 SCT120 17/13 A3006 RMK AO2
KJYM 190155Z AUTO 00000KT 10SM BKN060 BKN075 BKN120 17/13 A3006 RMK AO2
KJYM 190135Z AUTO 04003KT 10SM CLR 20/13 A3005 RMK AO2
KJYM 190115Z AUTO 00000KT 10SM CLR 20/14 A3005 RMK AO2
KJYM 190055Z AUTO 04003KT 10SM SCT060 22/12 A3005 RMK AO2
KJYM 190035Z AUTO 01003KT 10SM BKN060 23/12 A3005 RMK AO2
KJYM 190015Z AUTO 01003KT 10SM OVC060 24/12 A3005 RMK AO2
KJYM 182355Z AUTO 02003KT 10SM OVC060 24/11 A3005 RMK AO2
KJYM 182335Z AUTO 00000KT 10SM OVC060 25/11 A3005 RMK AO2
KJYM 182315Z AUTO 00000KT 10SM OVC060 25/11 A3005 RMK AO2
KJYM 182255Z AUTO 00000KT 10SM OVC060 24/11 A3005 RMK AO2
KJYM 182235Z AUTO 00000KT 10SM OVC060 25/11 A3005 RMK AO2
KJYM 182215Z AUTO 13003KT 10SM OVC060 26/11 A3006 RMK AO2
KJYM 182155Z AUTO 00000KT 10SM BKN060 25/10 A3006 RMK AO2
KJYM 182135Z AUTO 00000KT 10SM BKN060 26/10 A3006 RMK AO2
KJYM 182115Z AUTO 22003KT 10SM BKN060 26/10 A3006 RMK AO2
KJYM 182055Z AUTO 24004KT 10SM SCT060 27/11 A3007 RMK AO2
KJYM 182035Z AUTO 00000KT 10SM SCT060 27/10 A3007 RMK AO2
KJYM 182015Z AUTO 00000KT 10SM CLR 26/10 A3008 RMK AO2
KJYM 181955Z AUTO 20003KT 10SM CLR 25/09 A3009 RMK AO2
KJYM 181935Z AUTO 00000KT 10SM SCT060 26/09 A3010 RMK AO2
KJYM 181915Z AUTO 21003KT 10SM SCT050 24/10 A3010 RMK AO2
KJYM 181855Z AUTO 07005KT 10SM BKN050 25/10 A3010 RMK AO2
KJYM 181835Z AUTO 33003KT 10SM BKN050 26/10 A3010 RMK AO2
KJYM 181815Z AUTO 00000KT 10SM BKN050 BKN065 24/10 A3010 RMK AO2
KJYM 181755Z AUTO 27003KT 10SM SCT049 25/10 A3010 RMK AO2
KJYM 181735Z AUTO 09004KT 10SM SCT049 25/10 A3011 RMK AO2
KJYM 181715Z AUTO 05003KT 10SM CLR 24/10 A3011 RMK AO2
KJYM 181655Z AUTO 00000KT 10SM SCT044 SCT050 23/11 A3012 RMK AO2
KJYM 181635Z AUTO 00000KT 10SM BKN042 22/11 A3012 RMK AO2
KJYM 181615Z AUTO 00000KT 10SM BKN040 23/11 A3013 RMK AO2
KJYM 181555Z AUTO 00000KT 10SM BKN037 BKN042 22/12 A3013 RMK AO2
KJYM 181535Z AUTO 00000KT 10SM SCT039 21/12 A3013 RMK AO2
KJYM 181515Z AUTO 00000KT 10SM CLR 22/12 A3013 RMK AO2
KJYM 181455Z AUTO 00000KT 10SM CLR 22/12 A3013 RMK AO2
KJYM 181435Z AUTO 00000KT 10SM CLR 21/12 A3013 RMK AO2
KJYM 181415Z AUTO 06004KT 10SM CLR 21/12 A3013 RMK AO2
KJYM 181355Z AUTO 04004KT 10SM CLR 20/12 A3013 RMK AO2
KJYM 181335Z AUTO 10005KT 10SM CLR 20/12 A3014 RMK AO2
KJYM 181315Z AUTO 05003KT 10SM CLR 19/13 A3014 RMK AO2
KJYM 181255Z AUTO 06004KT 10SM CLR 18/13 A3013 RMK AO2
KJYM 181235Z AUTO 05003KT 10SM CLR 17/13 A3013 RMK AO2
KJYM 181215Z AUTO 00000KT 10SM CLR 16/12 A3013 RMK AO2
KJYM 181155Z AUTO 00000KT 10SM CLR 15/12 A3013 RMK AO2
KJYM 181135Z AUTO 00000KT 10SM CLR 14/12 A3013 RMK AO2
KJYM 181115Z AUTO 00000KT 10SM CLR 12/11 A3012 RMK AO2
KJYM 181055Z AUTO 00000KT 10SM CLR 11/10 A3012 RMK AO2
KJYM 181035Z AUTO 00000KT 10SM CLR 11/10 A3011 RMK AO2
KJYM 181015Z AUTO 00000KT 10SM CLR 10/09 A3011 RMK AO2
KJYM 180955Z AUTO 00000KT 10SM CLR 11/10 A3011 RMK AO2
KJYM 180935Z AUTO 00000KT 10SM CLR 11/10 A3010 RMK AO2
KJYM 180915Z AUTO 00000KT 10SM CLR 11/10 A3010 RMK AO2
KJYM 180855Z AUTO 00000KT 10SM CLR 11/09 A3010 RMK AO2
KJYM 180835Z AUTO 00000KT 10SM CLR 12/10 A3010 RMK AO2
KJYM 180815Z AUTO 00000KT 10SM CLR 12/10 A3010 RMK AO2
KJYM 180755Z AUTO 00000KT 10SM CLR 12/10 A3010 RMK AO2
KJYM 180735Z AUTO 00000KT 10SM CLR 14/11 A3010 RMK AO2
KJYM 180715Z AUTO 00000KT 10SM CLR 15/11 A3010 RMK AO2
KJYM 180655Z AUTO 01003KT 10SM CLR 15/11 A3010 RMK AO2
KJYM 180635Z AUTO 36003KT 10SM CLR 16/11 A3010 RMK AO2
KJYM 180615Z AUTO 01003KT 10SM CLR 16/11 A3009 RMK AO2
KJYM 180555Z AUTO 01004KT 10SM CLR 16/11 A3009 RMK AO2
KJYM 180535Z AUTO 36003KT 10SM CLR 16/11 A3009 RMK AO2
KJYM 180515Z AUTO 34003KT 10SM CLR 16/12 A3008 RMK AO2
KJYM 180455Z AUTO 35003KT 10SM CLR 15/11 A3008 RMK AO2
KJYM 180435Z AUTO 00000KT 10SM CLR 14/11 A3008 RMK AO2
KJYM 180415Z AUTO 00000KT 10SM CLR 13/11 A3008 RMK AO2
KJYM 180355Z AUTO 00000KT 10SM CLR 13/11 A3007 RMK AO2
KJYM 180335Z AUTO 00000KT 10SM CLR 13/11 A3007 RMK AO2
KJYM 180315Z AUTO 00000KT 10SM CLR 14/11 A3006 RMK AO2
KJYM 180255Z AUTO 00000KT 10SM CLR 16/11 A3006 RMK AO2
KJYM 180235Z AUTO 00000KT 10SM CLR 16/11 A3006 RMK AO2
KJYM 180215Z AUTO 00000KT 10SM CLR 16/12 A3005 RMK AO2
KJYM 180155Z AUTO 00000KT 10SM CLR 16/12 A3004 RMK AO2
KJYM 180135Z AUTO 00000KT 10SM CLR 18/12 A3003 RMK AO2
KJYM 180115Z AUTO 00000KT 10SM CLR 21/11 A3003 RMK AO2